createdAt,value
2022-09-09T00:00:16.658Z,99.90
2022-09-09T00:02:55.513Z,99.90
2022-09-09T00:05:33.638Z,99.90
2022-09-09T00:08:04.944Z,99.90
2022-09-09T00:10:37.367Z,99.90
2022-09-09T00:13:18.127Z,99.90
2022-09-09T00:15:57.842Z,99.90
2022-09-09T00:18:34.929Z,99.90
2022-09-09T00:21:09.547Z,99.90
2022-09-09T00:23:41.127Z,99.90
2022-09-09T00:26:15.039Z,99.90
2022-09-09T00:28:49.220Z,99.90
2022-09-09T00:31:22.762Z,99.90
2022-09-09T00:33:54.337Z,99.90
2022-09-09T00:36:26.298Z,99.90
2022-09-09T00:38:59.344Z,99.90
2022-09-09T00:41:39.723Z,99.90
2022-09-09T00:44:32.056Z,99.90
2022-09-09T00:47:22.382Z,99.90
2022-09-09T00:50:02.420Z,99.90
2022-09-09T00:52:43.017Z,99.90
2022-09-09T00:55:19.715Z,99.90
2022-09-09T00:57:53.035Z,99.90
2022-09-09T01:00:27.312Z,99.90
2022-09-09T01:03:12.395Z,99.90
2022-09-09T01:05:47.785Z,99.90
2022-09-09T01:08:44.004Z,99.90
2022-09-09T01:11:19.352Z,99.90
2022-09-09T01:13:51.506Z,99.90
2022-09-09T01:16:20.044Z,99.90
2022-09-09T01:18:51.351Z,99.90
2022-09-09T01:21:31.264Z,99.90
2022-09-09T01:24:18.024Z,99.90
2022-09-09T01:27:09.664Z,99.90
2022-09-09T01:29:38.720Z,99.90
2022-09-09T01:32:40.298Z,99.90
2022-09-09T01:35:13.209Z,99.90
2022-09-09T01:37:42.848Z,99.90
2022-09-09T01:40:11.389Z,99.90
2022-09-09T01:42:42.332Z,99.90
2022-09-09T01:45:11.614Z,99.90
2022-09-09T01:47:40.268Z,99.90
2022-09-09T01:50:27.731Z,99.90
2022-09-09T01:53:00.162Z,99.90
2022-09-09T01:55:35.147Z,99.90
2022-09-09T01:58:19.340Z,99.90
2022-09-09T02:00:58.848Z,99.90
2022-09-09T02:03:30.279Z,99.90
2022-09-09T02:06:23.093Z,99.90
2022-09-09T02:08:57.124Z,99.90
2022-09-09T02:11:29.214Z,99.90
2022-09-09T02:14:10.352Z,99.90
2022-09-09T02:16:47.579Z,99.90
2022-09-09T02:19:26.721Z,99.90
2022-09-09T02:22:24.733Z,99.90
2022-09-09T02:24:55.922Z,99.90
2022-09-09T02:27:27.905Z,99.90
2022-09-09T02:30:01.404Z,99.90
2022-09-09T02:32:54.413Z,99.90
2022-09-09T02:35:27.500Z,99.90
2022-09-09T02:37:59.575Z,99.90
2022-09-09T02:40:28.019Z,99.90
2022-09-09T02:43:02.059Z,99.90
2022-09-09T02:45:40.875Z,99.90
2022-09-09T02:48:16.741Z,99.90
2022-09-09T02:50:55.079Z,99.90
2022-09-09T02:53:30.676Z,99.90
2022-09-09T02:56:05.980Z,99.90
2022-09-09T02:58:38.655Z,99.90
2022-09-09T03:01:09.995Z,99.90
2022-09-09T03:03:39.101Z,99.90
2022-09-09T03:06:12.811Z,99.90
2022-09-09T03:08:49.284Z,99.90
2022-09-09T03:11:20.551Z,99.90
2022-09-09T03:13:50.240Z,99.90
2022-09-09T03:16:20.504Z,99.90
2022-09-09T03:18:51.866Z,99.90
2022-09-09T03:21:20.145Z,99.90
2022-09-09T03:23:49.180Z,99.90
2022-09-09T03:26:17.783Z,99.90
2022-09-09T03:28:48.273Z,99.90
2022-09-09T03:31:22.218Z,99.90
2022-09-09T03:33:50.571Z,99.90
2022-09-09T03:36:20.700Z,99.90
2022-09-09T03:38:48.924Z,99.90
2022-09-09T03:41:17.199Z,99.90
2022-09-09T03:43:45.580Z,99.90
2022-09-09T03:46:13.926Z,99.90
2022-09-09T03:48:43.535Z,99.90
2022-09-09T03:51:11.814Z,99.90
2022-09-09T03:53:40.424Z,99.90
2022-09-09T03:56:10.272Z,99.90
2022-09-09T03:58:40.285Z,99.90
2022-09-09T04:01:14.182Z,99.90
2022-09-09T04:03:45.668Z,99.90
2022-09-09T04:06:15.984Z,99.90
2022-09-09T04:08:49.499Z,99.90
2022-09-09T04:11:18.900Z,99.90
2022-09-09T04:13:48.683Z,99.90
2022-09-09T04:16:17.311Z,99.90
2022-09-09T04:18:47.175Z,99.90
2022-09-09T04:21:18.547Z,99.90
2022-09-09T04:23:47.366Z,99.90
2022-09-09T04:26:15.875Z,99.90
2022-09-09T04:28:46.384Z,99.90
2022-09-09T04:31:23.791Z,99.90
2022-09-09T04:33:56.331Z,99.90
2022-09-09T04:36:24.954Z,99.90
2022-09-09T04:38:57.761Z,99.90
2022-09-09T04:41:26.069Z,99.90
2022-09-09T04:43:55.598Z,99.90
2022-09-09T04:46:24.833Z,99.90
2022-09-09T04:48:54.714Z,99.90
2022-09-09T04:51:26.168Z,99.90
2022-09-09T04:53:55.122Z,99.90
2022-09-09T04:56:23.601Z,99.90
2022-09-09T04:58:57.765Z,99.90
2022-09-09T05:01:35.741Z,99.90
2022-09-09T05:04:06.597Z,99.90
2022-09-09T05:06:38.224Z,99.90
2022-09-09T05:09:07.208Z,99.90
2022-09-09T05:11:37.704Z,99.90
2022-09-09T05:14:18.959Z,99.90
2022-09-09T05:16:48.155Z,99.90
2022-09-09T05:19:20.013Z,99.90
2022-09-09T05:21:53.342Z,99.90
2022-09-09T05:24:27.680Z,99.90
2022-09-09T05:27:00.826Z,99.90
2022-09-09T05:29:29.217Z,99.90
2022-09-09T05:31:58.534Z,99.90
2022-09-09T05:34:26.895Z,99.90
2022-09-09T05:36:56.624Z,99.90
2022-09-09T05:39:26.268Z,99.90
2022-09-09T05:41:54.432Z,99.90
2022-09-09T05:44:24.411Z,99.90
2022-09-09T05:46:52.775Z,99.90
2022-09-09T05:49:22.463Z,99.90
2022-09-09T05:51:51.556Z,99.90
2022-09-09T05:54:22.576Z,99.90
2022-09-09T05:56:54.617Z,99.90
2022-09-09T05:59:24.236Z,99.90
2022-09-09T06:01:55.264Z,99.90
2022-09-09T06:04:36.783Z,99.90
2022-09-09T06:07:06.863Z,99.90
2022-09-09T06:09:36.642Z,99.90
2022-09-09T06:12:05.151Z,99.90
2022-09-09T06:14:37.830Z,99.90
2022-09-09T06:17:07.584Z,99.90
2022-09-09T06:19:35.739Z,99.90
2022-09-09T06:22:06.387Z,99.90
2022-09-09T06:24:39.437Z,99.90
2022-09-09T06:27:08.565Z,99.90
2022-09-09T06:29:38.561Z,99.90
2022-09-09T06:32:09.498Z,99.90
2022-09-09T06:34:37.998Z,99.90
2022-09-09T06:37:07.250Z,99.90
2022-09-09T06:39:42.455Z,99.90
2022-09-09T06:42:11.152Z,99.90
2022-09-09T06:44:45.109Z,99.90
2022-09-09T06:47:19.723Z,99.90
2022-09-09T06:49:48.906Z,99.90
2022-09-09T06:52:19.157Z,99.90
2022-09-09T06:54:50.012Z,99.90
2022-09-09T06:57:37.359Z,99.90
2022-09-09T07:00:10.815Z,99.90
2022-09-09T07:02:40.609Z,99.90
2022-09-09T07:05:10.847Z,99.90
2022-09-09T07:07:40.427Z,99.90
2022-09-09T07:10:11.624Z,99.90
2022-09-09T07:12:40.067Z,99.90
2022-09-09T07:15:12.076Z,99.90
2022-09-09T07:17:43.683Z,99.90
2022-09-09T07:20:12.544Z,99.90
2022-09-09T07:22:41.011Z,99.90
2022-09-09T07:25:12.167Z,99.90
2022-09-09T07:27:41.796Z,99.90
2022-09-09T07:30:17.943Z,99.90
2022-09-09T07:32:49.512Z,99.90
2022-09-09T07:35:17.902Z,99.90
2022-09-09T07:37:50.648Z,99.90
2022-09-09T07:40:22.805Z,99.60
2022-09-09T07:42:51.855Z,99.80
2022-09-09T07:45:20.216Z,99.80
2022-09-09T07:47:49.056Z,99.90
2022-09-09T07:50:17.895Z,99.90
2022-09-09T07:52:46.477Z,99.90
2022-09-09T07:55:16.011Z,99.90
2022-09-09T07:57:45.822Z,99.90
2022-09-09T08:00:16.718Z,99.90
2022-09-09T08:02:50.645Z,99.90
2022-09-09T08:05:19.237Z,99.90
2022-09-09T08:07:48.076Z,99.90
2022-09-09T08:10:17.049Z,99.90
2022-09-09T08:13:07.663Z,99.90
2022-09-09T08:15:38.496Z,99.90
2022-09-09T08:18:06.987Z,99.90
2022-09-09T08:20:37.648Z,99.90
2022-09-09T08:23:06.891Z,99.90
2022-09-09T08:25:36.420Z,99.90
2022-09-09T08:28:06.082Z,99.90
2022-09-09T08:30:34.540Z,99.90
2022-09-09T08:33:03.064Z,99.90
2022-09-09T08:35:33.465Z,99.90
2022-09-09T08:38:03.996Z,99.90
2022-09-09T08:40:42.251Z,99.90
2022-09-09T08:43:11.900Z,99.90
2022-09-09T08:45:50.548Z,99.90
2022-09-09T08:48:33.734Z,99.90
2022-09-09T08:51:03.189Z,99.90
2022-09-09T08:53:44.025Z,99.90
2022-09-09T08:56:16.503Z,99.80
2022-09-09T08:58:51.607Z,99.90
2022-09-09T09:01:43.669Z,99.90
2022-09-09T09:04:36.020Z,99.90
2022-09-09T09:07:15.400Z,99.60
2022-09-09T09:09:54.198Z,98.80
2022-09-09T09:12:25.750Z,97.80
2022-09-09T09:14:58.394Z,97.20
2022-09-09T09:17:31.121Z,97.20
2022-09-09T09:20:00.871Z,97.20
2022-09-09T09:22:37.313Z,97.10
2022-09-09T09:25:18.233Z,97.30
2022-09-09T09:27:57.580Z,97.10
2022-09-09T09:30:31.163Z,97.00
2022-09-09T09:33:10.916Z,96.60
2022-09-09T09:35:43.004Z,96.70
2022-09-09T09:41:09.424Z,97.20
2022-09-09T09:43:41.689Z,97.20
2022-09-09T09:46:24.564Z,97.80
2022-09-09T09:48:59.986Z,97.70
2022-09-09T09:51:31.265Z,98.50
2022-09-09T09:54:11.699Z,99.20
2022-09-09T09:56:41.524Z,99.90
2022-09-09T09:59:38.832Z,99.90
2022-09-09T10:02:19.057Z,99.90
2022-09-09T10:04:51.100Z,99.90
2022-09-09T10:07:22.237Z,99.90
2022-09-09T10:09:55.749Z,99.90
2022-09-09T10:12:36.068Z,99.90
2022-09-09T10:15:14.227Z,99.90
2022-09-09T10:17:56.044Z,99.90
2022-09-09T10:20:34.641Z,99.90
2022-09-09T10:23:16.092Z,99.90
2022-09-09T10:26:02.155Z,99.90
2022-09-09T10:28:53.070Z,99.90
2022-09-09T10:31:33.616Z,99.60
2022-09-09T10:34:15.205Z,99.40
2022-09-09T10:36:50.087Z,99.90
2022-09-09T10:39:33.539Z,99.50
2022-09-09T10:42:09.928Z,99.40
2022-09-09T10:45:01.819Z,99.00
2022-09-09T10:47:55.445Z,99.30
2022-09-09T10:51:00.696Z,99.60
2022-09-09T10:53:39.733Z,98.20
2022-09-09T10:56:11.783Z,98.70
2022-09-09T10:58:45.569Z,98.50
2022-09-09T11:01:20.054Z,98.00
2022-09-09T11:03:54.878Z,97.60
2022-09-09T11:06:30.803Z,96.90
2022-09-09T11:09:02.939Z,97.30
2022-09-09T11:11:38.015Z,96.90
2022-09-09T11:14:14.333Z,96.90
2022-09-09T11:16:49.155Z,96.50
2022-09-09T11:19:24.485Z,96.90
2022-09-09T11:21:58.911Z,97.30
2022-09-09T11:24:33.396Z,97.10
2022-09-09T11:27:10.283Z,97.00
2022-09-09T11:30:02.426Z,97.20
2022-09-09T11:33:05.406Z,97.50
2022-09-09T11:35:42.547Z,97.80
2022-09-09T11:38:28.726Z,98.80
2022-09-09T11:41:01.175Z,99.30
2022-09-09T11:43:33.408Z,99.70
2022-09-09T11:46:04.272Z,99.90
2022-09-09T11:48:35.631Z,99.90
2022-09-09T11:51:10.074Z,99.90
2022-09-09T11:53:53.008Z,99.90
2022-09-09T11:56:28.508Z,99.90
2022-09-09T11:59:04.556Z,99.90
2022-09-09T12:01:44.905Z,99.90
2022-09-09T12:04:22.359Z,99.90
2022-09-09T12:06:54.594Z,99.90
2022-09-09T12:09:32.075Z,99.90
2022-09-09T12:12:24.058Z,99.90
2022-09-09T12:15:18.291Z,99.90
2022-09-09T12:17:48.254Z,99.90
2022-09-09T12:20:19.573Z,99.90
2022-09-09T12:22:58.196Z,99.80
2022-09-09T12:25:36.971Z,99.90
2022-09-09T12:28:13.056Z,99.90
2022-09-09T12:30:54.931Z,99.90
2022-09-09T12:33:24.608Z,99.90
2022-09-09T12:35:57.586Z,99.90
2022-09-09T12:38:34.003Z,99.90
2022-09-09T12:41:03.714Z,99.90
2022-09-09T12:43:32.050Z,99.80
2022-09-09T12:46:04.404Z,99.80
2022-09-09T12:48:41.269Z,99.90
2022-09-09T12:51:21.192Z,99.90
2022-09-09T12:53:51.226Z,99.90
2022-09-09T12:56:27.618Z,99.70
2022-09-09T12:58:58.143Z,99.70
2022-09-09T13:01:29.405Z,99.60
2022-09-09T13:03:59.206Z,99.20
2022-09-09T13:06:29.688Z,99.60
2022-09-09T13:09:00.672Z,99.60
2022-09-09T13:11:33.463Z,99.90
2022-09-09T13:14:02.688Z,99.90
2022-09-09T13:16:35.764Z,99.00
2022-09-09T13:19:11.776Z,99.60
2022-09-09T13:21:41.088Z,99.90
2022-09-09T13:24:30.419Z,99.90
2022-09-09T13:27:02.778Z,99.80
2022-09-09T13:29:31.971Z,99.70
2022-09-09T13:32:07.286Z,98.70
2022-09-09T13:34:37.165Z,98.00
2022-09-09T13:37:07.778Z,97.90
2022-09-09T13:39:38.879Z,97.60
2022-09-09T13:42:23.902Z,97.30
2022-09-09T13:44:52.092Z,97.00
2022-09-09T13:47:22.145Z,97.70
2022-09-09T13:49:50.305Z,97.40
2022-09-09T13:52:20.404Z,96.70
2022-09-09T13:54:52.112Z,96.30
2022-09-09T13:57:23.509Z,95.80
2022-09-09T14:00:04.666Z,95.90
2022-09-09T14:02:34.663Z,94.90
2022-09-09T14:05:02.950Z,95.90
2022-09-09T14:07:31.253Z,95.70
2022-09-09T14:10:01.259Z,94.80
2022-09-09T14:12:31.020Z,95.70
2022-09-09T14:15:00.692Z,95.50
2022-09-09T14:17:32.291Z,96.20
2022-09-09T14:20:01.055Z,96.60
2022-09-09T14:22:29.465Z,97.20
2022-09-09T14:24:58.579Z,96.40
2022-09-09T14:27:27.555Z,96.20
2022-09-09T14:29:57.372Z,96.20
2022-09-09T14:32:25.622Z,96.20
2022-09-09T14:34:53.903Z,96.50
2022-09-09T14:37:22.551Z,96.50
2022-09-09T14:39:51.521Z,96.70
2022-09-09T14:42:19.782Z,96.40
2022-09-09T14:44:48.780Z,98.00
2022-09-09T14:47:18.317Z,98.40
2022-09-09T14:49:47.295Z,96.70
2022-09-09T14:52:15.683Z,96.20
2022-09-09T14:54:43.999Z,95.50
2022-09-09T14:57:12.188Z,95.80
2022-09-09T14:59:40.327Z,96.30
2022-09-09T15:02:10.860Z,96.30
2022-09-09T15:04:40.486Z,96.50
2022-09-09T15:07:08.603Z,96.40
2022-09-09T15:09:38.251Z,96.40
2022-09-09T15:12:06.648Z,96.50
2022-09-09T15:14:36.149Z,95.70
2022-09-09T15:17:04.386Z,95.90
2022-09-09T15:19:33.203Z,95.70
2022-09-09T15:22:02.664Z,96.10
2022-09-09T15:24:30.863Z,95.80
2022-09-09T15:26:59.217Z,94.70
2022-09-09T15:29:27.492Z,94.70
2022-09-09T15:31:56.236Z,94.70
2022-09-09T15:34:24.426Z,95.40
2022-09-09T15:36:52.576Z,96.10
2022-09-09T15:39:23.043Z,96.30
2022-09-09T15:41:52.129Z,95.90
2022-09-09T15:44:20.844Z,96.60
2022-09-09T15:46:51.787Z,97.10
2022-09-09T15:49:22.931Z,97.50
2022-09-09T15:51:54.245Z,97.80
2022-09-09T15:54:25.955Z,98.10
2022-09-09T15:56:56.873Z,98.20
2022-09-09T15:59:25.989Z,98.30
2022-09-09T16:01:54.511Z,98.70
2022-09-09T16:04:25.364Z,98.90
2022-09-09T16:06:53.862Z,98.80
2022-09-09T16:09:24.027Z,99.10
2022-09-09T16:11:54.172Z,99.00
2022-09-09T16:14:22.819Z,99.10
2022-09-09T16:16:50.992Z,99.00
2022-09-09T16:19:19.955Z,98.80
2022-09-09T16:21:50.267Z,99.00
2022-09-09T16:24:21.127Z,99.20
2022-09-09T16:26:52.477Z,98.20
2022-09-09T16:29:22.432Z,98.10
2022-09-09T16:31:51.619Z,97.70
2022-09-09T16:34:20.553Z,97.50
2022-09-09T16:36:49.893Z,97.20
2022-09-09T16:39:19.413Z,97.00
2022-09-09T16:41:49.407Z,97.00
2022-09-09T16:44:20.439Z,97.30
2022-09-09T16:46:56.697Z,97.30
2022-09-09T16:49:28.535Z,96.90
2022-09-09T16:52:00.327Z,97.10
2022-09-09T16:54:29.938Z,96.70
2022-09-09T16:56:58.540Z,97.00
2022-09-09T16:59:28.493Z,97.00
2022-09-09T17:01:56.842Z,97.40
2022-09-09T17:04:29.409Z,97.50
2022-09-09T17:06:58.336Z,97.60
2022-09-09T17:09:29.781Z,98.10
2022-09-09T17:11:58.017Z,97.80
2022-09-09T17:14:27.789Z,98.10
2022-09-09T17:16:55.930Z,98.20
2022-09-09T17:19:24.085Z,98.40
2022-09-09T17:22:15.644Z,98.40
2022-09-09T17:24:41.386Z,98.50
2022-09-09T17:27:09.883Z,98.70
2022-09-09T17:29:39.416Z,98.70
2022-09-09T17:32:08.372Z,98.70
2022-09-09T17:34:37.025Z,99.00
2022-09-09T17:37:06.916Z,99.10
2022-09-09T17:39:35.433Z,99.40
2022-09-09T17:42:03.684Z,99.60
2022-09-09T17:44:33.115Z,99.90
2022-09-09T17:47:05.002Z,99.90
2022-09-09T17:49:33.278Z,99.90
2022-09-09T17:52:01.485Z,99.90
2022-09-09T17:54:29.708Z,99.90
2022-09-09T17:56:58.558Z,99.90
2022-09-09T17:59:27.083Z,99.90
2022-09-09T18:01:55.518Z,99.90
2022-09-09T18:04:25.156Z,99.90
2022-09-09T18:06:55.609Z,99.90
2022-09-09T18:09:26.815Z,99.90
2022-09-09T18:11:56.828Z,99.90
2022-09-09T18:14:28.745Z,99.90
2022-09-09T18:16:56.936Z,99.90
2022-09-09T18:19:28.850Z,99.90
2022-09-09T18:22:00.208Z,99.90
2022-09-09T18:24:30.979Z,99.90
2022-09-09T18:26:59.315Z,99.90
2022-09-09T18:29:27.532Z,99.90
2022-09-09T18:31:56.783Z,99.90
2022-09-09T18:34:28.800Z,99.90
2022-09-09T18:36:57.605Z,99.90
2022-09-09T18:39:28.308Z,99.90
2022-09-09T18:41:59.472Z,99.90
2022-09-09T18:44:30.690Z,99.90
2022-09-09T18:46:59.093Z,99.90
2022-09-09T18:49:28.735Z,99.90
2022-09-09T18:51:57.988Z,99.90
2022-09-09T18:54:29.607Z,99.90
2022-09-09T18:56:58.111Z,99.90
2022-09-09T18:59:26.243Z,99.90
2022-09-09T19:01:54.840Z,99.90
2022-09-09T19:04:24.373Z,99.90
2022-09-09T19:06:57.861Z,99.90
2022-09-09T19:09:29.535Z,99.90
2022-09-09T19:11:58.210Z,99.90
2022-09-09T19:14:26.474Z,99.90
2022-09-09T19:16:55.390Z,99.90
2022-09-09T19:19:25.407Z,99.90
2022-09-09T19:21:57.583Z,99.90
2022-09-09T19:24:28.371Z,99.90
2022-09-09T19:26:58.740Z,99.90
2022-09-09T19:29:29.055Z,99.90
2022-09-09T19:32:36.771Z,99.90
2022-09-09T19:34:47.895Z,99.90
2022-09-09T19:37:18.503Z,99.90
2022-09-09T19:39:47.265Z,99.90
2022-09-09T19:42:15.784Z,99.90
2022-09-09T19:44:43.973Z,99.90
2022-09-09T19:47:14.258Z,99.90
2022-09-09T19:49:46.704Z,99.90
2022-09-09T19:52:17.643Z,99.90
2022-09-09T19:54:45.981Z,99.90
2022-09-09T19:57:14.229Z,99.90
2022-09-09T19:59:42.476Z,99.90
2022-09-09T20:02:13.265Z,99.90
2022-09-09T20:04:41.552Z,99.90
2022-09-09T20:07:09.910Z,99.90
2022-09-09T20:09:39.454Z,99.90
2022-09-09T20:12:08.701Z,99.90
2022-09-09T20:14:39.537Z,99.90
2022-09-09T20:17:10.008Z,99.90
2022-09-09T20:19:39.669Z,99.90
2022-09-09T20:22:07.932Z,99.90
2022-09-09T20:24:36.946Z,99.90
2022-09-09T20:27:08.087Z,99.90
2022-09-09T20:29:37.103Z,99.90
2022-09-09T20:32:05.840Z,99.90
2022-09-09T20:34:34.597Z,99.90
2022-09-09T20:37:02.948Z,99.90
2022-09-09T20:39:31.142Z,99.90
2022-09-09T20:41:59.278Z,99.90
2022-09-09T20:44:29.665Z,99.90
2022-09-09T20:47:02.782Z,99.90
2022-09-09T20:49:31.005Z,99.90
2022-09-09T20:51:59.209Z,99.90
2022-09-09T20:54:30.232Z,99.90
2022-09-09T20:57:00.301Z,99.90
2022-09-09T20:59:31.731Z,99.90
2022-09-09T21:02:01.545Z,99.90
2022-09-09T21:04:29.870Z,99.90
2022-09-09T21:06:58.097Z,99.90
2022-09-09T21:09:26.247Z,99.90
2022-09-09T21:11:54.659Z,99.90
2022-09-09T21:14:23.208Z,99.90
2022-09-09T21:16:52.674Z,99.90
2022-09-09T21:19:20.959Z,99.90
2022-09-09T21:21:49.254Z,99.90
2022-09-09T21:24:17.872Z,99.90
2022-09-09T21:26:46.013Z,99.90
2022-09-09T21:29:14.252Z,99.90
2022-09-09T21:31:43.129Z,99.90
2022-09-09T21:34:15.340Z,99.90
2022-09-09T21:36:43.500Z,99.90
2022-09-09T21:39:11.625Z,99.90
2022-09-09T21:41:40.036Z,99.90
2022-09-09T21:44:09.529Z,99.90
2022-09-09T21:46:38.594Z,99.90
2022-09-09T21:49:06.840Z,99.90
2022-09-09T21:51:36.669Z,99.90
2022-09-09T21:54:06.841Z,99.90
2022-09-09T21:56:35.707Z,99.90
2022-09-09T21:59:04.788Z,99.90
2022-09-09T22:01:34.194Z,99.90
2022-09-09T22:04:02.705Z,99.90
2022-09-09T22:06:30.907Z,99.90
2022-09-09T22:09:01.727Z,99.90
2022-09-09T22:11:30.563Z,99.90
2022-09-09T22:13:58.699Z,99.90
2022-09-09T22:16:26.928Z,99.90
2022-09-09T22:18:57.634Z,99.90
2022-09-09T22:21:30.716Z,99.90
2022-09-09T22:24:02.047Z,99.90
2022-09-09T22:26:32.778Z,99.90
2022-09-09T22:29:01.060Z,99.90
2022-09-09T22:31:29.458Z,99.90
2022-09-09T22:33:57.901Z,99.90
2022-09-09T22:36:26.882Z,99.90
2022-09-09T22:38:55.881Z,99.90
2022-09-09T22:41:26.023Z,99.90
2022-09-09T22:43:54.534Z,99.90
2022-09-09T22:46:23.671Z,99.90
2022-09-09T22:48:51.878Z,99.90
2022-09-09T22:51:20.044Z,99.90
2022-09-09T22:53:48.211Z,99.90
2022-09-09T22:56:18.445Z,99.90
2022-09-09T22:58:53.323Z,99.90
2022-09-09T23:01:21.734Z,99.90
2022-09-09T23:03:50.898Z,99.90
2022-09-09T23:06:22.980Z,99.90
2022-09-09T23:08:53.677Z,99.90
2022-09-09T23:11:22.130Z,99.90
2022-09-09T23:13:53.063Z,99.90
2022-09-09T23:16:23.380Z,99.90
2022-09-09T23:18:52.228Z,99.90
2022-09-09T23:21:20.925Z,99.90
2022-09-09T23:23:49.489Z,99.90
2022-09-09T23:26:20.245Z,99.90
2022-09-09T23:28:49.889Z,99.90
2022-09-09T23:31:22.383Z,99.90
2022-09-09T23:33:50.685Z,99.90
2022-09-09T23:36:21.104Z,99.90
2022-09-09T23:38:49.447Z,99.90
2022-09-09T23:41:21.142Z,99.90
2022-09-09T23:43:49.553Z,99.90
2022-09-09T23:46:21.898Z,99.90
2022-09-09T23:48:51.793Z,99.90
2022-09-09T23:51:23.534Z,99.90
2022-09-09T23:53:52.964Z,99.90
2022-09-09T23:56:22.059Z,99.90
2022-09-09T23:58:50.722Z,99.90
